createdAt,value
2022-08-21T00:01:46.812Z,77.63
2022-08-21T00:04:20.853Z,79.43
2022-08-21T00:06:52.339Z,79.00
2022-08-21T00:09:21.275Z,79.07
2022-08-21T00:11:49.518Z,76.57
2022-08-21T00:14:18.173Z,77.10
2022-08-21T00:16:46.293Z,76.60
2022-08-21T00:19:14.297Z,75.87
2022-08-21T00:21:44.361Z,75.17
2022-08-21T00:24:14.695Z,77.53
2022-08-21T00:26:44.407Z,76.40
2022-08-21T00:29:12.400Z,76.87
2022-08-21T00:31:40.445Z,74.70
2022-08-21T00:34:08.965Z,78.90
2022-08-21T00:36:39.024Z,77.17
2022-08-21T00:39:08.750Z,78.33
2022-08-21T00:41:40.076Z,77.43
2022-08-21T00:44:10.862Z,77.23
2022-08-21T00:46:40.480Z,75.20
2022-08-21T00:49:09.797Z,77.90
2022-08-21T00:51:41.923Z,77.90
2022-08-21T00:54:18.265Z,77.20
2022-08-21T00:56:49.033Z,76.47
2022-08-21T00:59:18.336Z,76.77
2022-08-21T01:01:46.488Z,78.47
2022-08-21T01:04:15.982Z,76.43
2022-08-21T01:06:44.138Z,77.37
2022-08-21T01:09:12.314Z,76.30
2022-08-21T01:11:40.547Z,76.73
2022-08-21T01:14:11.271Z,75.50
2022-08-21T01:16:39.709Z,76.73
2022-08-21T01:19:08.844Z,75.50
2022-08-21T01:21:38.225Z,78.07
2022-08-21T01:24:07.034Z,76.27
2022-08-21T01:26:36.571Z,77.00
2022-08-21T01:29:15.662Z,73.70
2022-08-21T01:31:43.669Z,76.40
2022-08-21T01:34:12.568Z,75.60
2022-08-21T01:36:41.931Z,75.63
2022-08-21T01:39:10.165Z,74.10
2022-08-21T01:41:38.257Z,75.33
2022-08-21T01:44:06.803Z,76.87
2022-08-21T01:46:35.166Z,75.13
2022-08-21T01:49:03.364Z,77.07
2022-08-21T01:51:31.350Z,76.07
2022-08-21T01:54:00.712Z,76.20
2022-08-21T01:56:28.918Z,76.20
2022-08-21T01:58:57.290Z,75.27
2022-08-21T02:01:25.519Z,74.43
2022-08-21T02:03:53.591Z,72.97
2022-08-21T02:06:21.622Z,74.57
2022-08-21T02:08:51.526Z,76.60
2022-08-21T02:11:21.324Z,76.00
2022-08-21T02:13:49.276Z,75.47
2022-08-21T02:16:19.462Z,76.87
2022-08-21T02:18:48.053Z,75.27
2022-08-21T02:21:16.312Z,76.40
2022-08-21T02:23:44.917Z,74.50
2022-08-21T02:26:13.828Z,76.30
2022-08-21T02:28:43.298Z,74.00
2022-08-21T02:31:11.604Z,76.67
2022-08-21T02:33:40.361Z,74.60
2022-08-21T02:36:09.587Z,75.70
2022-08-21T02:38:39.114Z,74.13
2022-08-21T02:41:08.598Z,75.07
2022-08-21T02:43:36.865Z,75.87
2022-08-21T02:46:07.763Z,74.37
2022-08-21T02:48:35.805Z,77.27
2022-08-21T02:51:06.400Z,75.50
2022-08-21T02:53:35.182Z,73.30
2022-08-21T02:56:06.123Z,75.30
2022-08-21T02:58:36.957Z,74.03
2022-08-21T03:01:09.425Z,76.10
2022-08-21T03:03:42.072Z,77.00
2022-08-21T03:06:11.358Z,73.53
2022-08-21T03:08:39.863Z,74.10
2022-08-21T03:11:08.731Z,72.90
2022-08-21T03:13:39.936Z,73.27
2022-08-21T03:16:10.758Z,73.80
2022-08-21T03:18:39.374Z,76.97
2022-08-21T03:21:08.083Z,73.27
2022-08-21T03:23:36.211Z,71.83
2022-08-21T03:26:05.364Z,73.07
2022-08-21T03:28:33.453Z,72.20
2022-08-21T03:31:01.492Z,72.97
2022-08-21T03:33:30.990Z,72.60
2022-08-21T03:36:01.953Z,73.17
2022-08-21T03:38:31.674Z,73.07
2022-08-21T03:41:00.962Z,71.30
2022-08-21T03:43:31.077Z,73.10
2022-08-21T03:46:00.808Z,71.67
2022-08-21T03:48:30.272Z,72.40
2022-08-21T03:50:58.321Z,72.00
2022-08-21T03:53:26.592Z,71.60
2022-08-21T03:55:55.220Z,71.20
2022-08-21T03:58:25.604Z,71.33
2022-08-21T04:00:56.546Z,72.50
2022-08-21T04:03:24.723Z,71.30
2022-08-21T04:05:54.102Z,72.47
2022-08-21T04:08:22.127Z,70.47
2022-08-21T04:10:52.604Z,70.80
2022-08-21T04:13:20.758Z,70.30
2022-08-21T04:15:49.083Z,69.60
2022-08-21T04:18:17.368Z,70.70
2022-08-21T04:20:50.281Z,71.17
2022-08-21T04:23:24.528Z,69.70
2022-08-21T04:25:53.854Z,69.97
2022-08-21T04:28:23.142Z,70.60
2022-08-21T04:30:53.003Z,69.87
2022-08-21T04:33:21.406Z,69.00
2022-08-21T04:35:49.980Z,69.40
2022-08-21T04:38:18.218Z,70.10
2022-08-21T04:40:47.668Z,69.47
2022-08-21T04:43:15.695Z,69.40
2022-08-21T04:45:45.817Z,69.57
2022-08-21T04:48:15.215Z,71.23
2022-08-21T04:50:45.861Z,70.00
2022-08-21T04:53:16.356Z,71.07
2022-08-21T04:55:45.363Z,69.97
2022-08-21T04:58:18.322Z,69.20
2022-08-21T05:00:47.063Z,70.47
2022-08-21T05:03:16.730Z,71.37
2022-08-21T05:05:45.262Z,69.17
2022-08-21T05:08:15.382Z,69.20
2022-08-21T05:10:44.140Z,70.77
2022-08-21T05:13:14.556Z,69.43
2022-08-21T05:15:42.970Z,70.20
2022-08-21T05:18:11.142Z,69.40
2022-08-21T05:20:39.130Z,70.57
2022-08-21T05:23:09.934Z,70.67
2022-08-21T05:25:38.702Z,69.30
2022-08-21T05:28:07.992Z,69.37
2022-08-21T05:30:38.025Z,69.67
2022-08-21T05:33:07.645Z,68.47
2022-08-21T05:35:35.855Z,69.93
2022-08-21T05:38:04.390Z,69.07
2022-08-21T05:40:32.385Z,70.40
2022-08-21T05:43:01.148Z,71.20
2022-08-21T05:45:42.344Z,69.87
2022-08-21T05:48:16.129Z,68.93
2022-08-21T05:50:44.796Z,70.07
2022-08-21T05:53:13.491Z,69.83
2022-08-21T05:55:45.659Z,70.60
2022-08-21T05:58:14.592Z,70.03
2022-08-21T06:00:42.904Z,69.00
2022-08-21T06:03:15.045Z,70.77
2022-08-21T06:05:43.176Z,70.20
2022-08-21T06:08:11.321Z,70.50
2022-08-21T06:10:39.523Z,70.00
2022-08-21T06:13:07.508Z,69.43
2022-08-21T06:15:35.499Z,70.20
2022-08-21T06:18:03.742Z,74.13
2022-08-21T06:20:33.693Z,71.03
2022-08-21T06:23:01.862Z,71.60
2022-08-21T06:25:30.129Z,71.87
2022-08-21T06:28:02.965Z,69.70
2022-08-21T06:30:31.043Z,71.67
2022-08-21T06:32:59.770Z,69.50
2022-08-21T06:35:29.991Z,71.73
2022-08-21T06:37:59.755Z,70.47
2022-08-21T06:40:29.790Z,70.67
2022-08-21T06:42:59.587Z,71.37
2022-08-21T06:45:32.258Z,69.97
2022-08-21T06:48:01.003Z,73.30
2022-08-21T06:50:29.356Z,71.07
2022-08-21T06:53:07.314Z,72.30
2022-08-21T06:55:35.671Z,71.50
2022-08-21T06:58:03.861Z,72.77
2022-08-21T07:00:32.032Z,71.63
2022-08-21T07:03:00.490Z,72.00
2022-08-21T07:05:29.651Z,73.95
2022-08-21T07:07:57.987Z,72.27
2022-08-21T07:10:28.445Z,73.07
2022-08-21T07:13:00.894Z,73.17
2022-08-21T07:15:30.909Z,73.07
2022-08-21T07:17:59.506Z,71.87
2022-08-21T07:20:28.243Z,77.27
2022-08-21T07:22:56.741Z,73.20
2022-08-21T07:25:24.762Z,75.37
2022-08-21T07:27:54.169Z,72.40
2022-08-21T07:30:22.276Z,74.60
2022-08-21T07:32:50.849Z,74.40
2022-08-21T07:35:19.704Z,76.70
2022-08-21T07:37:48.290Z,74.83
2022-08-21T07:40:18.108Z,73.53
2022-08-21T07:42:51.099Z,77.17
2022-08-21T07:45:22.014Z,77.40
2022-08-21T07:47:54.252Z,75.37
2022-08-21T07:50:29.741Z,77.90
2022-08-21T07:52:58.047Z,76.00
2022-08-21T07:55:26.366Z,80.93
2022-08-21T07:57:54.511Z,78.83
2022-08-21T08:00:26.990Z,74.23
2022-08-21T08:02:55.645Z,77.83
2022-08-21T08:05:25.638Z,74.90
2022-08-21T08:07:53.693Z,75.87
2022-08-21T08:10:23.044Z,75.17
2022-08-21T08:12:52.271Z,76.90
2022-08-21T08:15:25.521Z,75.60
2022-08-21T08:17:53.756Z,76.87
2022-08-21T08:20:22.572Z,81.43
2022-08-21T08:22:53.893Z,77.63
2022-08-21T08:25:26.269Z,78.87
2022-08-21T08:27:55.637Z,75.60
2022-08-21T08:30:31.260Z,77.10
2022-08-21T08:33:02.177Z,76.43
2022-08-21T08:35:30.455Z,82.22
2022-08-21T08:38:00.958Z,79.27
2022-08-21T08:40:34.374Z,77.93
2022-08-21T08:43:08.913Z,78.10
2022-08-21T08:45:40.176Z,78.80
2022-08-21T08:48:14.112Z,78.13
2022-08-21T08:50:46.338Z,76.73
2022-08-21T08:53:17.308Z,76.17
2022-08-21T08:55:52.290Z,76.57
2022-08-21T08:58:26.292Z,78.07
2022-08-21T09:00:56.987Z,76.37
2022-08-21T09:03:25.936Z,75.80
2022-08-21T09:06:13.333Z,79.17
2022-08-21T09:08:51.069Z,74.90
2022-08-21T09:11:26.290Z,75.70
2022-08-21T09:14:00.163Z,75.90
2022-08-21T09:16:34.727Z,75.20
2022-08-21T09:19:08.933Z,75.17
2022-08-21T09:21:45.214Z,73.70
2022-08-21T09:24:27.807Z,73.57
2022-08-21T09:27:03.178Z,76.63
2022-08-21T09:29:35.650Z,77.20
2022-08-21T09:32:06.624Z,74.90
2022-08-21T09:34:35.738Z,74.30
2022-08-21T09:37:06.007Z,74.97
2022-08-21T09:39:41.175Z,74.40
2022-08-21T09:42:12.447Z,73.90
2022-08-21T09:44:45.052Z,72.60
2022-08-21T09:47:14.958Z,72.87
2022-08-21T09:49:44.385Z,73.40
2022-08-21T09:52:19.003Z,73.40
2022-08-21T09:54:48.551Z,73.17
2022-08-21T09:57:39.437Z,72.57
2022-08-21T10:00:21.739Z,74.40
2022-08-21T10:02:51.097Z,75.70
2022-08-21T10:05:23.746Z,73.70
2022-08-21T10:07:52.298Z,73.20
2022-08-21T10:10:22.433Z,72.17
2022-08-21T10:12:55.279Z,73.63
2022-08-21T10:15:35.775Z,72.40
2022-08-21T10:18:12.374Z,72.87
2022-08-21T10:20:47.399Z,72.47
2022-08-21T10:23:29.709Z,73.43
2022-08-21T10:26:13.317Z,74.03
2022-08-21T10:28:48.089Z,74.30
2022-08-21T10:31:20.730Z,71.60
2022-08-21T10:33:58.199Z,73.77
2022-08-21T10:36:33.113Z,73.37
2022-08-21T10:39:26.013Z,72.90
2022-08-21T10:42:14.399Z,74.80
2022-08-21T10:44:50.747Z,72.40
2022-08-21T10:47:25.221Z,73.27
2022-08-21T10:50:03.851Z,72.87
2022-08-21T10:52:48.352Z,74.87
2022-08-21T10:55:18.994Z,74.30
2022-08-21T10:57:50.412Z,73.57
2022-08-21T11:00:21.078Z,75.80
2022-08-21T11:02:52.697Z,73.93
2022-08-21T11:05:28.471Z,73.90
2022-08-21T11:07:59.863Z,73.97
2022-08-21T11:10:31.887Z,71.80
2022-08-21T11:13:06.585Z,72.80
2022-08-21T11:15:40.594Z,73.50
2022-08-21T11:18:19.568Z,73.67
2022-08-21T11:20:53.898Z,74.20
2022-08-21T11:23:30.305Z,75.97
2022-08-21T11:26:02.918Z,72.47
2022-08-21T11:28:35.000Z,75.77
2022-08-21T11:31:10.868Z,74.70
2022-08-21T11:33:50.343Z,73.97
2022-08-21T11:36:24.162Z,72.47
2022-08-21T11:38:56.895Z,73.47
2022-08-21T11:41:30.602Z,72.37
2022-08-21T11:44:09.399Z,72.07
2022-08-21T11:46:42.997Z,74.73
2022-08-21T11:49:23.575Z,73.10
2022-08-21T11:51:55.853Z,73.07
2022-08-21T11:54:28.910Z,75.53
2022-08-21T11:57:01.812Z,74.93
2022-08-21T11:59:40.645Z,74.47
2022-08-21T12:02:11.696Z,72.70
2022-08-21T12:04:47.147Z,72.87
2022-08-21T12:07:19.319Z,76.20
2022-08-21T12:09:56.059Z,73.87
2022-08-21T12:12:27.642Z,72.67
2022-08-21T12:15:25.701Z,74.37
2022-08-21T12:17:59.684Z,73.20
2022-08-21T12:20:45.091Z,73.63
2022-08-21T12:23:27.942Z,72.50
2022-08-21T12:26:16.366Z,72.80
2022-08-21T12:28:44.386Z,73.30
2022-08-21T12:31:24.771Z,72.27
2022-08-21T12:33:56.859Z,70.90
2022-08-21T12:36:27.167Z,71.60
2022-08-21T12:38:59.901Z,72.90
2022-08-21T12:41:30.207Z,73.40
2022-08-21T12:44:01.045Z,72.27
2022-08-21T12:46:34.289Z,72.90
2022-08-21T12:49:05.170Z,73.30
2022-08-21T12:51:37.043Z,73.47
2022-08-21T12:54:06.520Z,74.20
2022-08-21T12:56:37.109Z,73.40
2022-08-21T12:59:07.669Z,71.80
2022-08-21T13:01:45.947Z,72.60
2022-08-21T13:04:17.062Z,73.60
2022-08-21T13:06:47.425Z,70.63
2022-08-21T13:09:19.371Z,71.80
2022-08-21T13:11:49.823Z,71.43
2022-08-21T13:14:26.975Z,71.20
2022-08-21T13:16:56.975Z,73.67
2022-08-21T13:19:26.576Z,81.70
2022-08-21T13:21:55.060Z,71.37
2022-08-21T13:24:41.849Z,72.40
2022-08-21T13:27:26.794Z,70.90
2022-08-21T13:30:07.087Z,70.70
2022-08-21T13:32:38.763Z,71.03
2022-08-21T13:35:13.113Z,73.47
2022-08-21T13:37:42.394Z,72.07
2022-08-21T13:40:15.980Z,71.17
2022-08-21T13:42:45.668Z,72.43
2022-08-21T13:45:20.779Z,71.37
2022-08-21T13:47:49.830Z,72.60
2022-08-21T13:50:20.643Z,74.90
2022-08-21T13:52:58.585Z,70.90
2022-08-21T13:55:37.358Z,70.87
2022-08-21T13:58:06.352Z,70.30
2022-08-21T14:00:37.372Z,71.97
2022-08-21T14:03:08.561Z,71.87
2022-08-21T14:05:39.990Z,70.87
2022-08-21T14:08:10.766Z,70.77
2022-08-21T14:10:45.713Z,70.37
2022-08-21T14:13:38.181Z,70.40
2022-08-21T14:16:18.215Z,69.70
2022-08-21T14:18:48.515Z,71.00
2022-08-21T14:21:27.348Z,70.37
2022-08-21T14:24:04.293Z,69.90
2022-08-21T14:26:36.707Z,69.87
2022-08-21T14:29:10.242Z,70.90
2022-08-21T14:31:43.128Z,69.60
2022-08-21T14:34:19.012Z,70.17
2022-08-21T14:36:48.888Z,71.23
2022-08-21T14:39:17.591Z,69.47
2022-08-21T14:41:49.503Z,69.90
2022-08-21T14:44:18.742Z,71.73
2022-08-21T14:46:56.064Z,70.80
2022-08-21T14:49:28.349Z,69.70
2022-08-21T14:51:58.511Z,69.83
2022-08-21T14:54:30.813Z,69.70
2022-08-21T14:57:06.919Z,69.43
2022-08-21T14:59:35.064Z,68.70
2022-08-21T15:02:05.234Z,69.57
2022-08-21T15:04:34.060Z,70.00
2022-08-21T15:07:02.627Z,69.97
2022-08-21T15:09:30.839Z,69.70
2022-08-21T15:12:01.000Z,71.10
2022-08-21T15:14:32.135Z,69.10
2022-08-21T15:17:00.181Z,69.53
2022-08-21T15:19:28.413Z,69.70
2022-08-21T15:21:56.485Z,70.30
2022-08-21T15:24:24.789Z,69.30
2022-08-21T15:26:53.758Z,70.80
2022-08-21T15:29:22.907Z,70.80
2022-08-21T15:31:57.550Z,69.20
2022-08-21T15:34:27.372Z,70.67
2022-08-21T15:36:57.172Z,68.67
2022-08-21T15:39:30.160Z,68.63
2022-08-21T15:42:00.154Z,68.67
2022-08-21T15:44:34.322Z,69.30
2022-08-21T15:47:03.922Z,69.40
2022-08-21T15:49:32.766Z,69.10
2022-08-21T15:52:00.736Z,70.17
2022-08-21T15:54:28.803Z,69.53
2022-08-21T15:56:56.790Z,69.17
2022-08-21T15:59:24.765Z,69.57
2022-08-21T16:01:53.361Z,68.57
2022-08-21T16:04:25.082Z,68.73
2022-08-21T16:06:57.684Z,69.03
2022-08-21T16:09:30.049Z,69.50
2022-08-21T16:11:58.078Z,69.27
2022-08-21T16:14:26.071Z,68.87
2022-08-21T16:16:54.756Z,68.73
2022-08-21T16:19:24.250Z,68.73
2022-08-21T16:21:52.323Z,68.10
2022-08-21T16:24:20.312Z,69.30
2022-08-21T16:26:56.145Z,69.30
2022-08-21T16:29:26.583Z,70.47
2022-08-21T16:31:55.227Z,68.67
2022-08-21T16:34:24.993Z,69.37
2022-08-21T16:36:52.986Z,69.70
2022-08-21T16:39:21.117Z,70.57
2022-08-21T16:41:49.977Z,70.27
2022-08-21T16:44:18.294Z,70.63
2022-08-21T16:46:46.577Z,70.87
2022-08-21T16:49:14.819Z,70.20
2022-08-21T16:51:44.487Z,68.77
2022-08-21T16:54:13.953Z,70.83
2022-08-21T16:56:47.006Z,70.70
2022-08-21T16:59:17.559Z,73.67
2022-08-21T17:01:46.121Z,69.20
2022-08-21T17:04:14.438Z,70.53
2022-08-21T17:06:44.243Z,73.00
2022-08-21T17:09:12.601Z,69.17
2022-08-21T17:11:42.380Z,70.93
2022-08-21T17:14:12.450Z,69.27
2022-08-21T17:16:41.623Z,70.07
2022-08-21T17:19:09.769Z,69.40
2022-08-21T17:21:37.757Z,71.50
2022-08-21T17:24:07.301Z,71.00
2022-08-21T17:26:35.693Z,69.00
2022-08-21T17:29:04.471Z,69.90
2022-08-21T17:31:32.611Z,69.33
2022-08-21T17:34:00.645Z,68.50
2022-08-21T17:36:30.306Z,74.75
2022-08-21T17:38:58.652Z,69.27
2022-08-21T17:41:28.710Z,70.00
2022-08-21T17:43:56.819Z,71.70
2022-08-21T17:46:27.735Z,71.10
2022-08-21T17:48:56.150Z,69.17
2022-08-21T17:51:24.277Z,68.47
2022-08-21T17:53:52.262Z,69.37
2022-08-21T17:56:20.958Z,69.17
2022-08-21T17:58:52.379Z,70.17
2022-08-21T18:01:20.968Z,68.50
2022-08-21T18:03:49.901Z,69.30
2022-08-21T18:06:18.469Z,69.90
2022-08-21T18:08:46.532Z,69.60
2022-08-21T18:11:23.190Z,69.47
2022-08-21T18:13:54.054Z,71.10
2022-08-21T18:16:22.413Z,69.70
2022-08-21T18:18:51.684Z,69.80
2022-08-21T18:21:19.988Z,70.60
2022-08-21T18:23:48.187Z,70.17
2022-08-21T18:26:20.923Z,70.27
2022-08-21T18:28:49.320Z,69.30
2022-08-21T18:31:18.712Z,70.00
2022-08-21T18:33:57.864Z,69.87
2022-08-21T18:36:26.975Z,73.60
2022-08-21T18:38:55.171Z,69.07
2022-08-21T18:41:23.732Z,68.80
2022-08-21T18:43:51.796Z,71.67
2022-08-21T18:46:21.143Z,69.70
2022-08-21T18:48:49.106Z,70.00
2022-08-21T18:51:17.566Z,70.87
2022-08-21T18:53:47.862Z,69.80
2022-08-21T18:56:21.889Z,70.97
2022-08-21T18:58:50.862Z,70.70
2022-08-21T19:01:18.893Z,71.87
2022-08-21T19:03:49.847Z,72.20
2022-08-21T19:06:17.981Z,70.20
2022-08-21T19:08:46.169Z,69.90
2022-08-21T19:11:14.592Z,69.40
2022-08-21T19:13:52.212Z,70.40
2022-08-21T19:16:21.094Z,70.27
2022-08-21T19:18:50.475Z,71.57
2022-08-21T19:21:18.478Z,70.30
2022-08-21T19:23:52.605Z,70.90
2022-08-21T19:26:22.043Z,73.30
2022-08-21T19:28:52.235Z,70.10
2022-08-21T19:31:23.862Z,70.07
2022-08-21T19:34:01.778Z,69.67
2022-08-21T19:36:45.350Z,71.30
2022-08-21T19:39:14.306Z,70.17
2022-08-21T19:41:45.457Z,70.40
2022-08-21T19:44:17.006Z,70.73
2022-08-21T19:46:49.939Z,70.27
2022-08-21T19:49:22.050Z,71.93
2022-08-21T19:51:50.580Z,69.90
2022-08-21T19:54:21.074Z,71.60
2022-08-21T19:56:49.758Z,70.10
2022-08-21T19:59:24.836Z,70.20
2022-08-21T20:01:53.235Z,71.30
2022-08-21T20:04:24.888Z,71.80
2022-08-21T20:06:55.810Z,71.97
2022-08-21T20:09:25.902Z,70.20
2022-08-21T20:11:59.756Z,70.77
2022-08-21T20:14:30.823Z,70.90
2022-08-21T20:17:01.989Z,71.23
2022-08-21T20:19:32.431Z,74.53
2022-08-21T20:22:00.540Z,72.17
2022-08-21T20:24:29.821Z,72.93
2022-08-21T20:26:58.377Z,71.30
2022-08-21T20:29:31.501Z,70.70
2022-08-21T20:32:07.804Z,71.23
2022-08-21T20:34:37.377Z,70.60
2022-08-21T20:37:05.724Z,70.90
2022-08-21T20:39:33.809Z,72.07
2022-08-21T20:42:01.843Z,72.87
2022-08-21T20:44:32.699Z,73.50
2022-08-21T20:47:01.443Z,70.53
2022-08-21T20:49:43.276Z,72.10
2022-08-21T20:52:11.405Z,71.20
2022-08-21T20:54:45.532Z,72.67
2022-08-21T20:57:18.180Z,71.90
2022-08-21T20:59:50.556Z,70.57
2022-08-21T21:02:26.750Z,72.20
2022-08-21T21:04:58.455Z,71.97
2022-08-21T21:07:32.532Z,71.77
2022-08-21T21:10:03.340Z,70.30
2022-08-21T21:12:35.661Z,70.90
2022-08-21T21:15:14.010Z,70.47
2022-08-21T21:17:44.269Z,70.77
2022-08-21T21:20:20.964Z,70.70
2022-08-21T21:22:56.504Z,70.07
2022-08-21T21:25:39.977Z,71.47
2022-08-21T21:28:12.803Z,71.83
2022-08-21T21:30:46.618Z,70.27
2022-08-21T21:33:16.513Z,70.50
2022-08-21T21:35:50.405Z,70.90
2022-08-21T21:38:26.152Z,71.87
2022-08-21T21:41:04.304Z,71.40
2022-08-21T21:43:45.145Z,70.00
2022-08-21T21:46:34.922Z,73.40
2022-08-21T21:49:20.994Z,70.47
2022-08-21T21:52:00.335Z,71.90
2022-08-21T21:54:51.814Z,80.83
2022-08-21T21:57:36.960Z,70.67
2022-08-21T22:00:09.775Z,71.70
2022-08-21T22:02:46.652Z,70.83
2022-08-21T22:05:22.176Z,70.23
2022-08-21T22:07:57.920Z,74.03
2022-08-21T22:10:32.065Z,70.57
2022-08-21T22:13:09.903Z,70.60
2022-08-21T22:15:41.463Z,70.07
2022-08-21T22:18:11.331Z,68.87
2022-08-21T22:20:44.234Z,72.03
2022-08-21T22:23:18.345Z,69.97
2022-08-21T22:25:50.624Z,71.60
2022-08-21T22:28:22.339Z,71.27
2022-08-21T22:30:56.471Z,71.00
2022-08-21T22:33:27.184Z,70.97
2022-08-21T22:35:57.465Z,70.57
2022-08-21T22:38:36.177Z,70.60
2022-08-21T22:41:13.756Z,71.80
2022-08-21T22:43:53.448Z,69.80
2022-08-21T22:46:28.912Z,70.33
2022-08-21T22:49:01.825Z,70.87
2022-08-21T22:51:34.106Z,70.47
2022-08-21T22:54:04.359Z,70.23
2022-08-21T22:59:38.097Z,69.80
2022-08-21T23:02:11.323Z,73.20
2022-08-21T23:04:46.884Z,71.13
2022-08-21T23:07:32.750Z,70.33
2022-08-21T23:10:02.474Z,70.57
2022-08-21T23:12:36.325Z,70.27
2022-08-21T23:15:09.296Z,71.57
2022-08-21T23:17:45.527Z,73.50
2022-08-21T23:20:22.719Z,69.40
2022-08-21T23:22:59.385Z,70.53
2022-08-21T23:25:42.593Z,70.73
2022-08-21T23:28:19.419Z,69.77
2022-08-21T23:31:06.683Z,71.40
2022-08-21T23:33:56.784Z,70.60
2022-08-21T23:36:47.909Z,75.07
2022-08-21T23:39:27.994Z,70.80
2022-08-21T23:42:02.418Z,72.13
2022-08-21T23:44:41.902Z,70.07
2022-08-21T23:47:21.943Z,70.20
2022-08-21T23:49:53.768Z,70.80
2022-08-21T23:52:30.750Z,69.97
2022-08-21T23:55:16.088Z,70.97
2022-08-21T23:57:54.106Z,71.23
